createdAt,value
2019-01-31T00:01:31.608Z,44.90
2019-01-31T00:04:21.487Z,35.87
2019-01-31T00:07:40.435Z,41.83
2019-01-31T00:10:26.131Z,42.20
2019-01-31T00:13:21.334Z,43.83
2019-01-31T00:16:09.433Z,39.63
2019-01-31T00:19:01.458Z,40.73
2019-01-31T00:22:08.248Z,46.53
2019-01-31T00:25:10.568Z,42.00
2019-01-31T00:27:57.284Z,36.77
2019-01-31T00:31:10.165Z,41.67
2019-01-31T00:34:23.033Z,37.40
2019-01-31T00:37:35.439Z,39.60
2019-01-31T00:40:29.825Z,39.47
2019-01-31T00:43:30.645Z,39.47
2019-01-31T00:46:51.034Z,46.87
2019-01-31T00:49:51.304Z,40.57
2019-01-31T00:53:04.200Z,38.27
2019-01-31T00:56:01.622Z,44.83
2019-01-31T00:59:00.926Z,36.50
2019-01-31T01:01:44.547Z,35.10
2019-01-31T01:04:37.061Z,38.27
2019-01-31T01:07:37.402Z,38.63
2019-01-31T01:10:32.520Z,40.50
2019-01-31T01:13:29.912Z,41.50
2019-01-31T01:16:28.639Z,36.83
2019-01-31T01:19:28.976Z,36.23
2019-01-31T01:22:41.357Z,38.53
2019-01-31T01:25:51.476Z,39.40
2019-01-31T01:28:49.792Z,36.50
2019-01-31T01:31:48.566Z,38.90
2019-01-31T01:35:01.401Z,35.53
2019-01-31T01:38:11.732Z,33.90
2019-01-31T01:41:12.226Z,34.80
2019-01-31T01:44:07.291Z,31.73
2019-01-31T01:47:19.490Z,37.37
2019-01-31T01:50:05.398Z,35.43
2019-01-31T01:53:02.514Z,34.60
2019-01-31T01:55:56.441Z,31.07
2019-01-31T01:58:47.532Z,29.07
2019-01-31T02:01:51.593Z,34.73
2019-01-31T02:05:06.281Z,31.40
2019-01-31T02:08:13.565Z,32.30
2019-01-31T02:11:38.801Z,24.97
2019-01-31T02:14:43.353Z,29.23
2019-01-31T02:17:33.342Z,24.87
2019-01-31T02:20:16.662Z,29.00
2019-01-31T02:23:35.159Z,30.50
2019-01-31T02:26:59.146Z,26.73
2019-01-31T02:29:46.100Z,28.90
2019-01-31T02:32:31.777Z,31.37
2019-01-31T02:35:22.767Z,25.03
2019-01-31T02:38:26.590Z,26.17
2019-01-31T02:41:36.507Z,25.73
2019-01-31T02:44:27.410Z,24.87
2019-01-31T02:47:21.657Z,29.20
2019-01-31T02:50:11.774Z,27.60
2019-01-31T02:53:06.710Z,29.73
2019-01-31T02:56:11.034Z,32.20
2019-01-31T02:59:15.876Z,27.00
2019-01-31T03:02:27.832Z,26.23
2019-01-31T03:05:26.698Z,30.10
2019-01-31T03:08:20.783Z,30.27
2019-01-31T03:11:14.846Z,27.33
2019-01-31T03:14:19.288Z,28.60
2019-01-31T03:17:17.438Z,25.50
2019-01-31T03:20:29.399Z,27.27
2019-01-31T03:23:17.644Z,27.87
2019-01-31T03:26:06.235Z,25.37
2019-01-31T03:29:17.572Z,25.33
2019-01-31T03:31:56.648Z,26.57
2019-01-31T03:34:56.886Z,26.30
2019-01-31T03:37:39.764Z,24.57
2019-01-31T03:40:29.127Z,24.67
2019-01-31T03:43:18.075Z,27.60
2019-01-31T03:46:12.094Z,28.80
2019-01-31T03:48:52.535Z,25.63
2019-01-31T03:51:48.940Z,26.03
2019-01-31T03:54:56.308Z,24.00
2019-01-31T03:58:12.971Z,26.40
2019-01-31T04:01:32.193Z,27.13
2019-01-31T04:04:11.648Z,29.57
2019-01-31T04:06:40.452Z,32.03
2019-01-31T04:09:10.922Z,28.30
2019-01-31T04:11:39.805Z,29.67
2019-01-31T04:14:08.935Z,30.73
2019-01-31T04:16:37.804Z,30.13
2019-01-31T04:19:06.719Z,31.93
2019-01-31T04:26:12.724Z,32.43
2019-01-31T04:28:41.537Z,30.30
2019-01-31T04:31:10.463Z,31.07
2019-01-31T04:33:39.406Z,31.60
2019-01-31T04:36:08.308Z,32.63
2019-01-31T04:38:37.311Z,35.17
2019-01-31T04:41:06.281Z,36.40
2019-01-31T04:43:35.211Z,34.50
2019-01-31T04:46:04.535Z,35.07
2019-01-31T04:48:33.701Z,33.13
2019-01-31T04:51:02.912Z,34.57
2019-01-31T04:53:32.041Z,38.13
2019-01-31T04:56:00.819Z,38.00
2019-01-31T04:58:29.907Z,40.87
2019-01-31T05:00:58.955Z,41.60
2019-01-31T05:03:28.034Z,39.43
2019-01-31T05:05:57.107Z,40.53
2019-01-31T05:08:25.935Z,37.53
2019-01-31T05:10:55.166Z,39.20
2019-01-31T05:13:24.543Z,37.03
2019-01-31T05:15:53.698Z,39.00
2019-01-31T05:18:23.410Z,34.87
2019-01-31T05:20:52.571Z,38.73
2019-01-31T05:23:21.519Z,38.83
2019-01-31T05:25:50.684Z,37.60
2019-01-31T05:28:19.606Z,37.63
2019-01-31T05:30:48.540Z,40.67
2019-01-31T05:33:17.788Z,40.33
2019-01-31T05:35:46.661Z,43.47
2019-01-31T05:38:17.530Z,38.03
2019-01-31T05:40:55.224Z,36.60
2019-01-31T05:43:17.656Z,38.00
2019-01-31T05:45:46.490Z,42.03
2019-01-31T05:48:15.493Z,40.13
2019-01-31T05:50:44.702Z,38.33
2019-01-31T05:53:13.741Z,36.73
2019-01-31T05:55:42.549Z,39.90
2019-01-31T05:58:11.334Z,37.80
2019-01-31T06:00:40.624Z,37.57
2019-01-31T06:03:09.906Z,41.00
2019-01-31T06:05:38.864Z,40.17
2019-01-31T06:08:07.700Z,36.63
2019-01-31T06:10:36.605Z,38.60
2019-01-31T06:13:05.521Z,40.90
2019-01-31T06:15:34.409Z,37.17
2019-01-31T06:18:03.647Z,35.67
2019-01-31T06:20:32.524Z,36.73
2019-01-31T06:23:01.336Z,37.27
2019-01-31T06:25:30.235Z,36.80
2019-01-31T06:27:59.063Z,39.20
2019-01-31T06:30:28.056Z,36.57
2019-01-31T06:32:57.363Z,38.17
2019-01-31T06:35:26.314Z,37.10
2019-01-31T06:37:55.149Z,36.90
2019-01-31T06:40:23.967Z,38.83
2019-01-31T06:42:52.762Z,35.10
2019-01-31T06:45:21.933Z,37.57
2019-01-31T06:47:50.741Z,36.43
2019-01-31T06:50:19.902Z,38.90
2019-01-31T06:52:49.471Z,38.10
2019-01-31T06:55:18.504Z,39.10
2019-01-31T06:57:47.318Z,38.60
2019-01-31T07:00:18.669Z,39.00
2019-01-31T07:02:47.774Z,41.40
2019-01-31T07:05:17.362Z,38.50
2019-01-31T07:07:47.053Z,38.87
2019-01-31T07:10:25.136Z,38.17
2019-01-31T07:12:54.054Z,38.40
2019-01-31T07:15:23.168Z,36.87
2019-01-31T07:17:52.031Z,41.80
2019-01-31T07:20:20.901Z,38.33
2019-01-31T07:22:49.729Z,38.03
2019-01-31T07:25:21.002Z,36.40
2019-01-31T07:27:49.870Z,36.90
2019-01-31T07:30:19.133Z,37.17
2019-01-31T07:32:48.374Z,36.13
2019-01-31T07:35:17.455Z,41.97
2019-01-31T07:37:46.644Z,37.57
2019-01-31T07:40:17.279Z,38.93
2019-01-31T07:42:46.179Z,33.03
2019-01-31T07:45:18.583Z,37.13
2019-01-31T07:47:47.410Z,35.47
2019-01-31T07:50:16.778Z,34.87
2019-01-31T07:52:45.708Z,37.60
2019-01-31T07:55:14.588Z,35.90
2019-01-31T07:57:43.430Z,35.80
2019-01-31T08:00:14.013Z,35.73
2019-01-31T08:02:42.938Z,36.33
2019-01-31T08:05:14.697Z,34.97
2019-01-31T08:07:43.670Z,38.50
2019-01-31T08:10:15.559Z,33.83
2019-01-31T08:12:44.412Z,32.53
2019-01-31T08:15:14.809Z,33.77
2019-01-31T08:17:43.972Z,32.37
2019-01-31T08:20:14.577Z,34.97
2019-01-31T08:22:43.728Z,34.80
2019-01-31T08:25:14.634Z,31.53
2019-01-31T08:27:43.868Z,34.17
2019-01-31T08:30:15.691Z,32.00
2019-01-31T08:32:45.036Z,32.57
2019-01-31T08:35:14.483Z,31.33
2019-01-31T08:37:43.891Z,33.13
2019-01-31T08:40:13.574Z,32.47
2019-01-31T08:42:42.691Z,32.17
2019-01-31T08:45:12.274Z,31.03
2019-01-31T08:47:41.101Z,31.70
2019-01-31T08:50:13.655Z,35.50
2019-01-31T08:52:42.521Z,31.77
2019-01-31T08:55:11.458Z,30.27
2019-01-31T08:57:40.310Z,27.50
2019-01-31T09:00:13.106Z,30.30
2019-01-31T09:02:41.988Z,28.47
2019-01-31T09:05:11.123Z,29.77
2019-01-31T09:07:40.047Z,26.23
2019-01-31T09:10:11.826Z,27.43
2019-01-31T09:12:40.647Z,25.17
2019-01-31T09:15:10.824Z,28.17
2019-01-31T09:17:40.013Z,33.40
2019-01-31T09:20:10.941Z,27.97
2019-01-31T09:23:11.369Z,28.67
2019-01-31T09:26:13.312Z,24.87
2019-01-31T09:28:53.415Z,27.73
2019-01-31T09:31:54.901Z,25.47
2019-01-31T09:34:49.368Z,28.07
2019-01-31T09:37:52.195Z,23.83
2019-01-31T09:40:37.794Z,26.03
2019-01-31T09:43:36.754Z,26.23
2019-01-31T09:46:41.025Z,25.03
2019-01-31T09:50:06.277Z,26.23
2019-01-31T09:52:47.256Z,24.37
2019-01-31T09:56:05.441Z,26.30
2019-01-31T09:58:56.211Z,28.27
2019-01-31T10:02:15.117Z,27.50
2019-01-31T10:05:24.302Z,27.13
2019-01-31T10:08:19.425Z,26.60
2019-01-31T10:10:57.549Z,31.23
2019-01-31T10:13:54.299Z,28.60
2019-01-31T10:17:25.467Z,31.97
2019-01-31T10:20:31.860Z,25.70
2019-01-31T10:23:43.869Z,25.47
2019-01-31T10:26:28.616Z,25.57
2019-01-31T10:29:27.984Z,28.83
2019-01-31T10:32:24.897Z,25.57
2019-01-31T10:35:23.112Z,24.33
2019-01-31T10:38:30.475Z,24.57
2019-01-31T10:41:49.665Z,25.33
2019-01-31T10:44:26.309Z,23.23
2019-01-31T10:47:40.409Z,23.40
2019-01-31T10:50:48.119Z,23.70
2019-01-31T10:53:26.545Z,31.50
2019-01-31T10:56:26.932Z,26.40
2019-01-31T10:59:30.176Z,20.50
2019-01-31T11:02:33.472Z,18.57
2019-01-31T11:05:35.625Z,22.07
2019-01-31T11:08:44.279Z,19.97
2019-01-31T11:11:47.555Z,20.50
2019-01-31T11:14:42.942Z,17.30
2019-01-31T11:17:40.981Z,14.87
2019-01-31T11:20:49.847Z,16.27
2019-01-31T11:23:35.740Z,12.70
2019-01-31T11:27:07.864Z,20.63
2019-01-31T11:30:09.662Z,10.53
2019-01-31T11:33:39.656Z,15.17
2019-01-31T11:36:20.611Z,12.50
2019-01-31T11:39:19.226Z,12.70
2019-01-31T11:42:08.375Z,14.20
2019-01-31T11:45:10.547Z,11.63
2019-01-31T11:48:20.541Z,9.10
2019-01-31T11:51:29.544Z,11.37
2019-01-31T11:54:30.060Z,12.53
2019-01-31T11:57:37.547Z,12.40
2019-01-31T12:00:07.483Z,13.30
2019-01-31T12:02:36.603Z,13.57
2019-01-31T12:05:06.107Z,14.57
2019-01-31T12:07:36.624Z,12.53
2019-01-31T12:10:06.346Z,20.60
2019-01-31T12:12:35.295Z,14.43
2019-01-31T12:15:06.189Z,17.00
2019-01-31T12:17:34.971Z,19.30
2019-01-31T12:20:04.476Z,17.33
2019-01-31T12:22:33.690Z,15.00
2019-01-31T12:25:02.598Z,15.40
2019-01-31T12:27:32.025Z,12.97
2019-01-31T12:30:01.328Z,11.23
2019-01-31T12:32:30.251Z,15.70
2019-01-31T12:34:59.125Z,13.27
2019-01-31T12:37:28.172Z,13.80
2019-01-31T12:39:57.177Z,14.50
2019-01-31T12:42:26.054Z,13.47
2019-01-31T12:44:55.021Z,10.53
2019-01-31T12:47:25.006Z,12.23
2019-01-31T12:49:53.874Z,10.67
2019-01-31T12:52:22.949Z,15.10
2019-01-31T12:54:51.980Z,11.33
2019-01-31T12:57:20.764Z,10.90
2019-01-31T12:59:49.818Z,13.87
2019-01-31T13:02:18.764Z,10.70
2019-01-31T13:04:47.897Z,10.93
2019-01-31T13:07:17.038Z,10.70
2019-01-31T13:09:46.409Z,11.90
2019-01-31T13:12:15.508Z,10.57
2019-01-31T13:14:44.584Z,18.33
2019-01-31T13:17:13.398Z,9.67
2019-01-31T13:19:42.318Z,12.03
2019-01-31T13:22:11.164Z,15.30
2019-01-31T13:24:40.027Z,10.63
2019-01-31T13:27:08.940Z,12.37
2019-01-31T13:29:38.270Z,10.33
2019-01-31T13:32:07.992Z,12.90
2019-01-31T13:34:36.790Z,10.80
2019-01-31T13:37:05.721Z,9.73
2019-01-31T13:39:34.627Z,10.93
2019-01-31T13:42:03.722Z,8.07
2019-01-31T13:44:32.546Z,8.47
2019-01-31T13:47:01.534Z,10.37
2019-01-31T13:49:30.735Z,11.73
2019-01-31T13:51:59.561Z,10.23
2019-01-31T13:54:28.559Z,12.97
2019-01-31T13:56:57.395Z,8.20
2019-01-31T13:59:26.187Z,7.30
2019-01-31T14:01:55.237Z,6.90
2019-01-31T14:04:24.310Z,10.27
2019-01-31T14:06:53.176Z,11.43
2019-01-31T14:09:22.321Z,11.07
2019-01-31T14:11:51.178Z,7.70
2019-01-31T14:14:20.042Z,7.00
2019-01-31T14:16:48.826Z,8.77
2019-01-31T14:19:17.679Z,8.20
2019-01-31T14:21:46.585Z,9.20
2019-01-31T14:24:15.375Z,6.73
2019-01-31T14:26:44.230Z,6.93
2019-01-31T14:29:13.183Z,7.50
2019-01-31T14:31:42.474Z,8.30
2019-01-31T14:34:11.267Z,7.37
2019-01-31T14:36:40.200Z,9.90
2019-01-31T14:39:09.836Z,9.27
2019-01-31T14:41:38.886Z,8.57
2019-01-31T14:44:07.971Z,9.57
2019-01-31T14:46:36.860Z,10.10
2019-01-31T14:49:05.775Z,11.83
2019-01-31T14:51:34.901Z,8.73
2019-01-31T14:54:03.853Z,9.77
2019-01-31T14:56:32.645Z,10.80
2019-01-31T14:59:01.505Z,8.07
2019-01-31T15:01:30.376Z,12.67
2019-01-31T15:03:59.535Z,12.00
2019-01-31T15:06:28.407Z,9.27
2019-01-31T15:08:57.428Z,10.63
2019-01-31T15:11:26.188Z,13.67
2019-01-31T15:13:55.266Z,8.87
2019-01-31T15:16:24.084Z,11.93
2019-01-31T15:18:53.193Z,10.13
2019-01-31T15:21:21.945Z,9.43
2019-01-31T15:23:50.808Z,11.30
2019-01-31T15:26:19.858Z,9.23
2019-01-31T15:28:49.007Z,8.63
2019-01-31T15:31:17.850Z,8.53
2019-01-31T15:33:46.822Z,7.47
2019-01-31T15:36:15.703Z,7.97
2019-01-31T15:38:44.878Z,11.90
2019-01-31T15:41:13.761Z,8.83
2019-01-31T15:43:43.037Z,7.40
2019-01-31T15:46:13.731Z,13.53
2019-01-31T15:48:42.944Z,10.17
2019-01-31T15:51:12.218Z,9.97
2019-01-31T15:53:41.067Z,8.87
2019-01-31T15:56:10.619Z,6.93
2019-01-31T15:58:39.690Z,7.97
2019-01-31T16:01:11.098Z,9.90
2019-01-31T16:03:39.942Z,5.90
2019-01-31T16:06:09.087Z,9.43
2019-01-31T16:08:38.186Z,5.53
2019-01-31T16:11:07.115Z,7.33
2019-01-31T16:13:36.396Z,5.47
2019-01-31T16:16:40.487Z,5.77
2019-01-31T16:19:09.437Z,6.03
2019-01-31T16:21:38.258Z,6.17
2019-01-31T16:24:07.139Z,7.50
2019-01-31T16:26:36.106Z,13.33
2019-01-31T16:29:05.286Z,23.20
2019-01-31T16:31:34.507Z,33.63
2019-01-31T16:34:04.578Z,11.37
2019-01-31T16:36:33.451Z,10.00
2019-01-31T16:39:02.765Z,11.23
2019-01-31T16:41:31.899Z,15.60
2019-01-31T16:44:00.877Z,8.33
2019-01-31T16:46:30.292Z,10.60
2019-01-31T16:48:59.300Z,14.30
2019-01-31T16:51:28.379Z,11.03
2019-01-31T16:53:57.565Z,10.33
2019-01-31T16:56:27.160Z,9.73
2019-01-31T16:58:56.089Z,8.97
2019-01-31T17:01:25.292Z,7.93
2019-01-31T17:03:54.208Z,8.67
2019-01-31T17:06:23.399Z,9.93
2019-01-31T17:08:52.309Z,8.33
2019-01-31T17:11:21.380Z,9.53
2019-01-31T17:13:50.477Z,11.17
2019-01-31T17:16:19.584Z,8.93
2019-01-31T17:18:48.508Z,8.03
2019-01-31T17:21:17.664Z,9.13
2019-01-31T17:23:46.804Z,9.37
2019-01-31T17:26:15.897Z,7.77
2019-01-31T17:28:44.763Z,9.87
2019-01-31T17:31:13.649Z,9.83
2019-01-31T17:33:42.994Z,9.67
2019-01-31T17:36:12.158Z,12.00
2019-01-31T17:38:41.448Z,13.27
2019-01-31T17:41:10.512Z,10.20
2019-01-31T17:43:39.520Z,11.60
2019-01-31T17:46:10.511Z,14.13
2019-01-31T17:48:39.413Z,10.10
2019-01-31T17:51:09.719Z,11.93
2019-01-31T17:53:38.735Z,12.27
2019-01-31T17:56:07.953Z,11.83
2019-01-31T17:58:36.964Z,11.03
2019-01-31T18:01:07.583Z,10.20
2019-01-31T18:03:36.501Z,11.03
2019-01-31T18:06:05.691Z,12.97
2019-01-31T18:08:34.563Z,19.77
2019-01-31T18:11:03.819Z,12.77
2019-01-31T18:13:32.760Z,18.33
2019-01-31T18:16:03.338Z,15.30
2019-01-31T18:18:32.417Z,22.23
2019-01-31T18:21:01.489Z,30.13
2019-01-31T18:23:30.373Z,23.00
2019-01-31T18:25:59.461Z,20.00
2019-01-31T18:28:28.751Z,26.90
2019-01-31T18:30:57.729Z,20.30
2019-01-31T18:33:27.732Z,30.20
2019-01-31T18:35:57.375Z,22.37
2019-01-31T18:38:26.324Z,21.53
2019-01-31T18:40:55.624Z,21.60
2019-01-31T18:43:24.657Z,17.87
2019-01-31T18:45:54.156Z,21.93
2019-01-31T18:48:23.304Z,19.60
2019-01-31T18:50:52.493Z,17.47
2019-01-31T18:53:21.424Z,16.20
2019-01-31T18:55:50.440Z,17.87
2019-01-31T18:58:19.958Z,18.10
2019-01-31T19:00:49.886Z,17.37
2019-01-31T19:03:18.997Z,15.97
2019-01-31T19:05:48.662Z,13.43
2019-01-31T19:08:17.875Z,15.00
2019-01-31T19:10:46.764Z,14.43
2019-01-31T19:13:15.624Z,15.07
2019-01-31T19:15:46.363Z,18.43
2019-01-31T19:18:15.134Z,15.13
2019-01-31T19:20:44.305Z,14.80
2019-01-31T19:23:13.635Z,16.63
2019-01-31T19:25:44.171Z,13.17
2019-01-31T19:28:13.634Z,17.43
2019-01-31T19:30:42.770Z,20.10
2019-01-31T19:33:12.433Z,17.37
2019-01-31T19:35:42.043Z,18.57
2019-01-31T19:38:13.161Z,17.00
2019-01-31T19:40:44.595Z,13.23
2019-01-31T19:43:13.553Z,16.07
2019-01-31T19:45:46.080Z,20.10
2019-01-31T19:48:15.251Z,16.60
2019-01-31T19:50:45.024Z,19.67
2019-01-31T19:53:15.905Z,18.57
2019-01-31T19:55:45.183Z,18.23
2019-01-31T19:58:14.475Z,17.03
2019-01-31T20:00:43.483Z,19.37
2019-01-31T20:03:12.480Z,15.60
2019-01-31T20:05:41.575Z,17.10
2019-01-31T20:08:11.539Z,16.37
2019-01-31T20:10:40.811Z,16.53
2019-01-31T20:13:09.942Z,21.70
2019-01-31T20:15:39.044Z,17.47
2019-01-31T20:18:08.395Z,18.03
2019-01-31T20:20:37.574Z,14.90
2019-01-31T20:23:07.140Z,17.23
2019-01-31T20:25:36.139Z,18.00
2019-01-31T20:28:05.303Z,16.53
2019-01-31T20:30:34.442Z,19.83
2019-01-31T20:33:03.734Z,17.67
2019-01-31T20:35:32.812Z,16.13
2019-01-31T20:38:02.736Z,18.97
2019-01-31T20:40:37.377Z,17.93
2019-01-31T20:43:07.120Z,14.87
2019-01-31T20:45:36.491Z,18.53
2019-01-31T20:48:06.523Z,20.17
2019-01-31T20:50:36.523Z,18.77
2019-01-31T20:53:05.721Z,17.73
2019-01-31T20:55:34.773Z,16.23
2019-01-31T20:58:04.308Z,17.70
2019-01-31T21:00:35.680Z,17.60
2019-01-31T21:03:05.526Z,21.07
2019-01-31T21:05:34.622Z,18.87
2019-01-31T21:08:03.778Z,18.20
2019-01-31T21:10:32.753Z,18.43
2019-01-31T21:13:01.759Z,16.03
2019-01-31T21:15:30.732Z,21.73
2019-01-31T21:17:59.653Z,19.67
2019-01-31T21:20:28.472Z,19.37
2019-01-31T21:22:57.447Z,21.53
2019-01-31T21:25:26.697Z,20.37
2019-01-31T21:27:55.550Z,22.40
2019-01-31T21:30:27.204Z,18.50
2019-01-31T21:32:56.178Z,16.77
2019-01-31T21:35:25.326Z,23.03
2019-01-31T21:37:54.523Z,22.80
2019-01-31T21:40:23.510Z,20.67
2019-01-31T21:42:53.578Z,21.50
2019-01-31T21:45:22.576Z,23.67
2019-01-31T21:47:51.724Z,22.83
2019-01-31T21:50:21.395Z,22.90
2019-01-31T21:52:50.288Z,18.87
2019-01-31T21:55:19.767Z,22.73
2019-01-31T21:57:48.913Z,20.70
2019-01-31T22:00:26.136Z,25.17
2019-01-31T22:02:55.380Z,26.30
2019-01-31T22:05:24.322Z,22.80
2019-01-31T22:07:53.220Z,21.93
2019-01-31T22:10:22.215Z,19.60
2019-01-31T22:12:51.160Z,24.57
2019-01-31T22:15:22.299Z,27.10
2019-01-31T22:17:51.618Z,22.40
2019-01-31T22:20:20.945Z,23.20
2019-01-31T22:22:50.291Z,23.70
2019-01-31T22:25:20.274Z,22.43
2019-01-31T22:27:49.095Z,24.03
2019-01-31T22:30:26.378Z,26.00
2019-01-31T22:32:55.674Z,27.33
2019-01-31T22:35:24.913Z,24.53
2019-01-31T22:37:53.879Z,23.87
2019-01-31T22:40:23.120Z,25.30
2019-01-31T22:42:52.088Z,25.03
2019-01-31T22:45:21.944Z,25.83
2019-01-31T22:47:51.149Z,22.13
2019-01-31T22:50:21.184Z,25.33
2019-01-31T22:52:50.155Z,24.23
2019-01-31T22:55:20.557Z,25.80
2019-01-31T22:57:49.628Z,24.40
2019-01-31T23:01:05.434Z,24.63
2019-01-31T23:03:34.666Z,26.23
2019-01-31T23:06:03.819Z,26.83
2019-01-31T23:08:32.714Z,24.87
2019-01-31T23:11:01.582Z,24.47
2019-01-31T23:13:30.548Z,22.70
2019-01-31T23:15:59.471Z,26.10
2019-01-31T23:18:28.445Z,26.37
2019-01-31T23:20:57.229Z,22.57
2019-01-31T23:23:26.259Z,22.90
2019-01-31T23:25:55.433Z,26.63
2019-01-31T23:28:24.466Z,24.20
2019-01-31T23:30:53.627Z,25.70
2019-01-31T23:33:23.131Z,25.13
2019-01-31T23:35:52.122Z,22.37
2019-01-31T23:38:21.276Z,25.97
2019-01-31T23:40:50.299Z,24.10
2019-01-31T23:43:19.369Z,25.93
2019-01-31T23:45:48.341Z,22.70
2019-01-31T23:48:17.293Z,30.53
2019-01-31T23:50:46.173Z,28.20
2019-01-31T23:53:15.137Z,23.70
2019-01-31T23:55:44.188Z,29.43
2019-01-31T23:58:13.286Z,30.03
